sensor_id;sensor_type;location;lat;lon;timestamp;pressure;altitude;pressure_sealevel;temperature;humidity
62126;BME280;69591;53.282;6.150;2023-04-28T00:00:46;101835.59;;;15.46;49.36
62126;BME280;69591;53.282;6.150;2023-04-28T00:01:48;101834.81;;;15.46;49.23
62126;BME280;69591;53.282;6.150;2023-04-28T00:02:49;101833.66;;;15.47;49.28
62126;BME280;69591;53.282;6.150;2023-04-28T00:03:51;101841.03;;;15.46;49.46
62126;BME280;69591;53.282;6.150;2023-04-28T00:04:53;101837.53;;;15.46;49.12
62126;BME280;69591;53.282;6.150;2023-04-28T00:05:54;101836.75;;;15.45;49.26
62126;BME280;69591;53.282;6.150;2023-04-28T00:06:57;101837.53;;;15.46;49.03
62126;BME280;69591;53.282;6.150;2023-04-28T00:07:59;101834.47;;;15.47;49.29
62126;BME280;69591;53.282;6.150;2023-04-28T00:09:00;101834.81;;;15.46;49.13
62126;BME280;69591;53.282;6.150;2023-04-28T00:10:02;101835.59;;;15.46;49.26
62126;BME280;69591;53.282;6.150;2023-04-28T00:11:07;101828.56;;;15.45;49.20
62126;BME280;69591;53.282;6.150;2023-04-28T00:12:09;101830.16;;;15.46;49.28
62126;BME280;69591;53.282;6.150;2023-04-28T00:13:10;101826.66;;;15.46;49.29
62126;BME280;69591;53.282;6.150;2023-04-28T00:14:12;101827.44;;;15.46;49.21
62126;BME280;69591;53.282;6.150;2023-04-28T00:15:13;101821.22;;;15.46;49.12
62126;BME280;69591;53.282;6.150;2023-04-28T00:16:15;101821.97;;;15.46;49.15
62126;BME280;69591;53.282;6.150;2023-04-28T00:17:16;101816.53;;;15.46;49.21
62126;BME280;69591;53.282;6.150;2023-04-28T00:18:18;101826.66;;;15.46;49.14
62126;BME280;69591;53.282;6.150;2023-04-28T00:19:20;101821.22;;;15.46;49.28
62126;BME280;69591;53.282;6.150;2023-04-28T00:20:21;101821.22;;;15.46;49.24
62126;BME280;69591;53.282;6.150;2023-04-28T00:21:23;101817.69;;;15.45;49.25
62126;BME280;69591;53.282;6.150;2023-04-28T00:22:26;101810.31;;;15.46;49.15
62126;BME280;69591;53.282;6.150;2023-04-28T00:23:27;101814.97;;;15.45;49.26
62126;BME280;69591;53.282;6.150;2023-04-28T00:24:29;101812.25;;;15.45;49.17
62126;BME280;69591;53.282;6.150;2023-04-28T00:25:30;101813.03;;;15.46;49.06
62126;BME280;69591;53.282;6.150;2023-04-28T00:26:31;101814.97;;;15.45;49.08
62126;BME280;69591;53.282;6.150;2023-04-28T00:27:33;101813.81;;;15.46;49.21
62126;BME280;69591;53.282;6.150;2023-04-28T00:28:34;101813.41;;;15.44;49.26
62126;BME280;69591;53.282;6.150;2023-04-28T00:29:36;101814.97;;;15.45;49.17
62126;BME280;69591;53.282;6.150;2023-04-28T00:30:37;101810.31;;;15.46;49.16
62126;BME280;69591;53.282;6.150;2023-04-28T00:31:39;101804.88;;;15.46;49.27
62126;BME280;69591;53.282;6.150;2023-04-28T00:32:40;101807.59;;;15.46;49.19
62126;BME280;69591;53.282;6.150;2023-04-28T00:33:42;101806.81;;;15.45;49.26
62126;BME280;69591;53.282;6.150;2023-04-28T00:34:44;101799.44;;;15.46;49.12
62126;BME280;69591;53.282;6.150;2023-04-28T00:35:46;101799.44;;;15.46;49.16
62126;BME280;69591;53.282;6.150;2023-04-28T00:36:47;101806.81;;;15.45;49.14
62126;BME280;69591;53.282;6.150;2023-04-28T00:37:50;101794.00;;;15.46;49.06
62126;BME280;69591;53.282;6.150;2023-04-28T00:38:51;101793.19;;;15.45;49.15
62126;BME280;69591;53.282;6.150;2023-04-28T00:39:53;101793.19;;;15.45;49.13
62126;BME280;69591;53.282;6.150;2023-04-28T00:40:55;101797.50;;;15.46;48.94
62126;BME280;69591;53.282;6.150;2023-04-28T00:41:57;101793.19;;;15.45;49.03
62126;BME280;69591;53.282;6.150;2023-04-28T00:42:58;101787.75;;;15.45;48.96
62126;BME280;69591;53.282;6.150;2023-04-28T00:44:00;101787.75;;;15.45;48.95
62126;BME280;69591;53.282;6.150;2023-04-28T00:45:02;101775.72;;;15.46;49.08
62126;BME280;69591;53.282;6.150;2023-04-28T00:46:03;101783.09;;;15.46;49.07
62126;BME280;69591;53.282;6.150;2023-04-28T00:47:05;101775.28;;;15.44;49.07
62126;BME280;69591;53.282;6.150;2023-04-28T00:48:07;101772.56;;;15.44;48.92
62126;BME280;69591;53.282;6.150;2023-04-28T00:49:08;101776.88;;;15.45;49.10
62126;BME280;69591;53.282;6.150;2023-04-28T00:50:10;101769.84;;;15.44;49.01
62126;BME280;69591;53.282;6.150;2023-04-28T00:51:11;101776.06;;;15.45;48.88
62126;BME280;69591;53.282;6.150;2023-04-28T00:52:13;101772.56;;;15.44;48.90
62126;BME280;69591;53.282;6.150;2023-04-28T00:53:16;101769.06;;;15.44;48.77
62126;BME280;69591;53.282;6.150;2023-04-28T00:54:17;101769.06;;;15.44;48.94
62126;BME280;69591;53.282;6.150;2023-04-28T00:55:19;101770.97;;;15.43;49.00
62126;BME280;69591;53.282;6.150;2023-04-28T00:56:22;101768.25;;;15.43;49.06
62126;BME280;69591;53.282;6.150;2023-04-28T00:57:24;101765.53;;;15.43;48.93
62126;BME280;69591;53.282;6.150;2023-04-28T00:58:25;101769.06;;;15.44;48.91
62126;BME280;69591;53.282;6.150;2023-04-28T00:59:27;101769.84;;;15.44;48.80
62126;BME280;69591;53.282;6.150;2023-04-28T01:00:29;101768.25;;;15.43;48.81
62126;BME280;69591;53.282;6.150;2023-04-28T01:01:30;101765.88;;;15.42;48.87
62126;BME280;69591;53.282;6.150;2023-04-28T01:02:32;101765.53;;;15.43;48.77
62126;BME280;69591;53.282;6.150;2023-04-28T01:03:35;101770.22;;;15.43;48.99
62126;BME280;69591;53.282;6.150;2023-04-28T01:04:37;101767.47;;;15.43;48.77
62126;BME280;69591;53.282;6.150;2023-04-28T01:05:40;101770.22;;;15.43;48.75
62126;BME280;69591;53.282;6.150;2023-04-28T01:06:41;101768.25;;;15.43;48.80
62126;BME280;69591;53.282;6.150;2023-04-28T01:07:44;101766.69;;;15.42;48.72
62126;BME280;69591;53.282;6.150;2023-04-28T01:08:48;101765.88;;;15.42;48.61
62126;BME280;69591;53.282;6.150;2023-04-28T01:09:51;101759.69;;;15.41;48.90
62126;BME280;69591;53.282;6.150;2023-04-28T01:10:57;101760.44;;;15.42;48.98
62126;BME280;69591;53.282;6.150;2023-04-28T01:12:17;101759.31;;;15.43;49.13
62126;BME280;69591;53.282;6.150;2023-04-28T01:13:22;101751.94;;;15.43;49.25
62126;BME280;69591;53.282;6.150;2023-04-28T01:14:24;101756.59;;;15.43;48.87
62126;BME280;69591;53.282;6.150;2023-04-28T01:15:26;101750.34;;;15.42;48.84
62126;BME280;69591;53.282;6.150;2023-04-28T01:16:28;101752.28;;;15.42;48.90
62126;BME280;69591;53.282;6.150;2023-04-28T01:17:31;101751.50;;;15.41;48.94
62126;BME280;69591;53.282;6.150;2023-04-28T01:18:33;101754.22;;;15.41;48.75
62126;BME280;69591;53.282;6.150;2023-04-28T01:19:35;101748.78;;;15.41;48.82
62126;BME280;69591;53.282;6.150;2023-04-28T01:20:36;101735.59;;;15.43;48.81
62126;BME280;69591;53.282;6.150;2023-04-28T01:21:38;101740.63;;;15.41;48.80
62126;BME280;69591;53.282;6.150;2023-04-28T01:22:58;101737.91;;;15.41;48.72
62126;BME280;69591;53.282;6.150;2023-04-28T01:24:01;101736.31;;;15.40;48.85
62126;BME280;69591;53.282;6.150;2023-04-28T01:25:06;101744.13;;;15.42;48.89
62126;BME280;69591;53.282;6.150;2023-04-28T01:26:08;101735.94;;;15.42;48.41
62126;BME280;69591;53.282;6.150;2023-04-28T01:27:09;101730.50;;;15.42;48.73
62126;BME280;69591;53.282;6.150;2023-04-28T01:28:12;101734.03;;;15.42;48.79
62126;BME280;69591;53.282;6.150;2023-04-28T01:29:14;101729.75;;;15.41;48.72
62126;BME280;69591;53.282;6.150;2023-04-28T01:30:16;101730.16;;;15.43;48.78
62126;BME280;69591;53.282;6.150;2023-04-28T01:31:17;101721.56;;;15.41;48.83
62126;BME280;69591;53.282;6.150;2023-04-28T01:32:19;101713.41;;;15.41;48.66
62126;BME280;69591;53.282;6.150;2023-04-28T01:33:20;101713.41;;;15.41;48.53
62126;BME280;69591;53.282;6.150;2023-04-28T01:34:22;101721.56;;;15.41;48.56
62126;BME280;69591;53.282;6.150;2023-04-28T01:35:23;101714.53;;;15.40;48.61
62126;BME280;69591;53.282;6.150;2023-04-28T01:36:25;101714.53;;;15.40;48.63
62126;BME280;69591;53.282;6.150;2023-04-28T01:37:26;101710.69;;;15.41;48.69
62126;BME280;69591;53.282;6.150;2023-04-28T01:38:28;101713.41;;;15.41;48.64
62126;BME280;69591;53.282;6.150;2023-04-28T01:39:31;101710.69;;;15.41;48.53
62126;BME280;69591;53.282;6.150;2023-04-28T01:40:32;101705.25;;;15.41;48.73
62126;BME280;69591;53.282;6.150;2023-04-28T01:41:34;101703.66;;;15.40;48.51
62126;BME280;69591;53.282;6.150;2023-04-28T01:42:37;101703.66;;;15.40;48.84
62126;BME280;69591;53.282;6.150;2023-04-28T01:43:39;101704.44;;;15.41;48.65
62126;BME280;69591;53.282;6.150;2023-04-28T01:44:40;101707.97;;;15.41;48.66
62126;BME280;69591;53.282;6.150;2023-04-28T01:45:44;101702.84;;;15.40;48.56
62126;BME280;69591;53.282;6.150;2023-04-28T01:46:46;101702.84;;;15.40;48.75
62126;BME280;69591;53.282;6.150;2023-04-28T01:47:47;101703.66;;;15.40;48.31
62126;BME280;69591;53.282;6.150;2023-04-28T01:48:49;101709.09;;;15.40;48.69
62126;BME280;69591;53.282;6.150;2023-04-28T01:49:50;101700.94;;;15.40;48.63
62126;BME280;69591;53.282;6.150;2023-04-28T01:50:52;101694.69;;;15.40;48.48
62126;BME280;69591;53.282;6.150;2023-04-28T01:51:53;101693.56;;;15.41;48.65
62126;BME280;69591;53.282;6.150;2023-04-28T01:52:55;101692.75;;;15.40;48.63
62126;BME280;69591;53.282;6.150;2023-04-28T01:53:56;101693.56;;;15.41;48.63
62126;BME280;69591;53.282;6.150;2023-04-28T01:55:00;101692.75;;;15.40;48.41
62126;BME280;69591;53.282;6.150;2023-04-28T01:56:01;101687.31;;;15.40;48.61
62126;BME280;69591;53.282;6.150;2023-04-28T01:57:02;101688.13;;;15.41;48.71
62126;BME280;69591;53.282;6.150;2023-04-28T01:58:07;101687.31;;;15.40;48.65
62126;BME280;69591;53.282;6.150;2023-04-28T01:59:09;101683.81;;;15.40;48.52
62126;BME280;69591;53.282;6.150;2023-04-28T02:00:11;101681.88;;;15.40;48.51
62126;BME280;69591;53.282;6.150;2023-04-28T02:01:21;101687.31;;;15.40;48.59
62126;BME280;69591;53.282;6.150;2023-04-28T02:02:24;101674.88;;;15.39;48.75
62126;BME280;69591;53.282;6.150;2023-04-28T02:03:25;101681.06;;;15.40;48.54
62126;BME280;69591;53.282;6.150;2023-04-28T02:04:27;101681.88;;;15.40;48.68
62126;BME280;69591;53.282;6.150;2023-04-28T02:05:29;101668.28;;;15.40;48.69
62126;BME280;69591;53.282;6.150;2023-04-28T02:06:30;101666.69;;;15.39;48.44
62126;BME280;69591;53.282;6.150;2023-04-28T02:07:32;101670.19;;;15.40;48.53
62126;BME280;69591;53.282;6.150;2023-04-28T02:08:33;101672.91;;;15.40;48.65
62126;BME280;69591;53.282;6.150;2023-04-28T02:09:35;101672.16;;;15.39;48.72
62126;BME280;69591;53.282;6.150;2023-04-28T02:10:38;101669.44;;;15.39;48.60
62126;BME280;69591;53.282;6.150;2023-04-28T02:11:39;101671.00;;;15.40;48.31
62126;BME280;69591;53.282;6.150;2023-04-28T02:12:41;101674.88;;;15.39;48.31
62126;BME280;69591;53.282;6.150;2023-04-28T02:13:42;101672.16;;;15.39;48.63
62126;BME280;69591;53.282;6.150;2023-04-28T02:14:44;101669.44;;;15.39;48.79
62126;BME280;69591;53.282;6.150;2023-04-28T02:15:45;101664.75;;;15.40;48.50
62126;BME280;69591;53.282;6.150;2023-04-28T02:16:47;101666.69;;;15.39;48.49
62126;BME280;69591;53.282;6.150;2023-04-28T02:17:48;101666.69;;;15.39;48.34
62126;BME280;69591;53.282;6.150;2023-04-28T02:18:50;101676.44;;;15.40;48.41
62126;BME280;69591;53.282;6.150;2023-04-28T02:19:53;101664.75;;;15.40;48.42
62126;BME280;69591;53.282;6.150;2023-04-28T02:20:55;101661.25;;;15.39;48.35
62126;BME280;69591;53.282;6.150;2023-04-28T02:21:57;101656.94;;;15.38;48.29
62126;BME280;69591;53.282;6.150;2023-04-28T02:22:58;101658.53;;;15.39;48.11
62126;BME280;69591;53.282;6.150;2023-04-28T02:23:59;101653.09;;;15.39;48.22
62126;BME280;69591;53.282;6.150;2023-04-28T02:25:01;101652.31;;;15.39;48.14
62126;BME280;69591;53.282;6.150;2023-04-28T02:26:04;101655.03;;;15.39;48.19
62126;BME280;69591;53.282;6.150;2023-04-28T02:27:06;101646.84;;;15.39;48.32
62126;BME280;69591;53.282;6.150;2023-04-28T02:28:07;101648.78;;;15.38;48.40
62126;BME280;69591;53.282;6.150;2023-04-28T02:29:09;101646.06;;;15.38;48.70
62126;BME280;69591;53.282;6.150;2023-04-28T02:30:10;101647.19;;;15.37;48.12
62126;BME280;69591;53.282;6.150;2023-04-28T02:31:12;101646.06;;;15.38;48.22
62126;BME280;69591;53.282;6.150;2023-04-28T02:32:13;101647.97;;;15.38;47.92
62126;BME280;69591;53.282;6.150;2023-04-28T02:33:16;101644.47;;;15.37;48.16
62126;BME280;69591;53.282;6.150;2023-04-28T02:34:17;101646.06;;;15.38;47.99
62126;BME280;69591;53.282;6.150;2023-04-28T02:35:19;101639.00;;;15.37;47.91
62126;BME280;69591;53.282;6.150;2023-04-28T02:36:20;101647.19;;;15.37;48.12
62126;BME280;69591;53.282;6.150;2023-04-28T02:37:22;101638.22;;;15.37;47.95
62126;BME280;69591;53.282;6.150;2023-04-28T02:38:24;101639.00;;;15.37;48.01
62126;BME280;69591;53.282;6.150;2023-04-28T02:39:26;101632.00;;;15.36;48.13
62126;BME280;69591;53.282;6.150;2023-04-28T02:40:30;101639.00;;;15.37;47.92
62126;BME280;69591;53.282;6.150;2023-04-28T02:41:33;101624.97;;;15.35;47.79
62126;BME280;69591;53.282;6.150;2023-04-28T02:42:34;101635.50;;;15.37;47.83
62126;BME280;69591;53.282;6.150;2023-04-28T02:43:36;101630.41;;;15.35;47.79
62126;BME280;69591;53.282;6.150;2023-04-28T02:44:37;101635.84;;;15.35;48.07
62126;BME280;69591;53.282;6.150;2023-04-28T02:45:39;101633.13;;;15.35;47.96
62126;BME280;69591;53.282;6.150;2023-04-28T02:46:40;101626.56;;;15.36;47.84
62126;BME280;69591;53.282;6.150;2023-04-28T02:47:42;101625.78;;;15.36;47.91
62126;BME280;69591;53.282;6.150;2023-04-28T02:48:43;101623.41;;;15.34;47.63
62126;BME280;69591;53.282;6.150;2023-04-28T02:49:46;101622.25;;;15.35;47.76
62126;BME280;69591;53.282;6.150;2023-04-28T02:50:47;101617.97;;;15.34;48.03
62126;BME280;69591;53.282;6.150;2023-04-28T02:51:49;101619.53;;;15.35;47.68
62126;BME280;69591;53.282;6.150;2023-04-28T02:52:50;101621.47;;;15.35;47.71
62126;BME280;69591;53.282;6.150;2023-04-28T02:53:52;101618.75;;;15.35;47.83
62126;BME280;69591;53.282;6.150;2023-04-28T02:54:53;101611.72;;;15.34;47.95
62126;BME280;69591;53.282;6.150;2023-04-28T02:55:55;101607.06;;;15.34;47.89
62126;BME280;69591;53.282;6.150;2023-04-28T02:56:58;101607.06;;;15.34;48.01
62126;BME280;69591;53.282;6.150;2023-04-28T02:58:00;101602.78;;;15.33;47.95
62126;BME280;69591;53.282;6.150;2023-04-28T02:59:01;101601.63;;;15.34;48.04
62126;BME280;69591;53.282;6.150;2023-04-28T03:00:03;101600.84;;;15.34;47.80
62126;BME280;69591;53.282;6.150;2023-04-28T03:01:12;101587.59;;;15.32;47.90
62126;BME280;69591;53.282;6.150;2023-04-28T03:02:13;101595.38;;;15.34;47.82
62126;BME280;69591;53.282;6.150;2023-04-28T03:03:15;101594.63;;;15.33;47.83
62126;BME280;69591;53.282;6.150;2023-04-28T03:04:17;101597.34;;;15.33;47.69
62126;BME280;69591;53.282;6.150;2023-04-28T03:05:18;101600.06;;;15.33;47.69
62126;BME280;69591;53.282;6.150;2023-04-28T03:06:20;101602.78;;;15.33;47.94
62126;BME280;69591;53.282;6.150;2023-04-28T03:07:22;101593.03;;;15.32;47.80
62126;BME280;69591;53.282;6.150;2023-04-28T03:08:24;101594.63;;;15.33;47.84
62126;BME280;69591;53.282;6.150;2023-04-28T03:09:27;101594.63;;;15.33;47.74
62126;BME280;69591;53.282;6.150;2023-04-28T03:10:29;101591.09;;;15.33;47.94
62126;BME280;69591;53.282;6.150;2023-04-28T03:11:30;101598.47;;;15.32;47.88
62126;BME280;69591;53.282;6.150;2023-04-28T03:12:33;101593.81;;;15.33;47.90
62126;BME280;69591;53.282;6.150;2023-04-28T03:13:34;101593.03;;;15.32;47.92
62126;BME280;69591;53.282;6.150;2023-04-28T03:14:36;101587.59;;;15.32;47.80
62126;BME280;69591;53.282;6.150;2023-04-28T03:15:38;101593.81;;;15.33;47.74
62126;BME280;69591;53.282;6.150;2023-04-28T03:16:39;101584.88;;;15.32;47.98
62126;BME280;69591;53.282;6.150;2023-04-28T03:17:41;101582.16;;;15.32;47.76
62126;BME280;69591;53.282;6.150;2023-04-28T03:18:43;101582.94;;;15.33;47.71
62126;BME280;69591;53.282;6.150;2023-04-28T03:19:45;101582.94;;;15.33;47.85
62126;BME280;69591;53.282;6.150;2023-04-28T03:20:46;101576.69;;;15.32;47.74
62126;BME280;69591;53.282;6.150;2023-04-28T03:21:48;101576.69;;;15.32;47.98
62126;BME280;69591;53.282;6.150;2023-04-28T03:22:49;101582.16;;;15.32;47.96
62126;BME280;69591;53.282;6.150;2023-04-28T03:23:52;101575.94;;;15.32;47.80
62126;BME280;69591;53.282;6.150;2023-04-28T03:24:53;101568.53;;;15.32;47.95
62126;BME280;69591;53.282;6.150;2023-04-28T03:25:55;101567.78;;;15.32;47.96
62126;BME280;69591;53.282;6.150;2023-04-28T03:26:57;101569.69;;;15.31;47.96
62126;BME280;69591;53.282;6.150;2023-04-28T03:28:00;101568.91;;;15.31;47.78
62126;BME280;69591;53.282;6.150;2023-04-28T03:29:02;101564.25;;;15.31;47.85
62126;BME280;69591;53.282;6.150;2023-04-28T03:30:04;101559.59;;;15.32;47.91
62126;BME280;69591;53.282;6.150;2023-04-28T03:31:06;101552.56;;;15.31;47.96
62126;BME280;69591;53.282;6.150;2023-04-28T03:32:07;101558.81;;;15.31;47.85
62126;BME280;69591;53.282;6.150;2023-04-28T03:33:09;101558.81;;;15.31;47.97
62126;BME280;69591;53.282;6.150;2023-04-28T03:34:11;101563.44;;;15.31;47.85
62126;BME280;69591;53.282;6.150;2023-04-28T03:35:12;101562.66;;;15.30;47.92
62126;BME280;69591;53.282;6.150;2023-04-28T03:36:15;101559.94;;;15.30;48.01
62126;BME280;69591;53.282;6.150;2023-04-28T03:37:17;101561.53;;;15.31;47.81
62126;BME280;69591;53.282;6.150;2023-04-28T03:38:18;101559.16;;;15.30;47.69
62126;BME280;69591;53.282;6.150;2023-04-28T03:39:20;101556.44;;;15.30;47.99
62126;BME280;69591;53.282;6.150;2023-04-28T03:40:22;101554.50;;;15.30;47.85
62126;BME280;69591;53.282;6.150;2023-04-28T03:41:55;101550.22;;;15.29;47.70
62126;BME280;69591;53.282;6.150;2023-04-28T03:43:21;101545.56;;;15.30;47.70
62126;BME280;69591;53.282;6.150;2023-04-28T03:44:39;101548.28;;;15.30;47.80
62126;BME280;69591;53.282;6.150;2023-04-28T03:45:41;101544.75;;;15.29;47.97
62126;BME280;69591;53.282;6.150;2023-04-28T03:46:45;101542.84;;;15.30;47.71
62126;BME280;69591;53.282;6.150;2023-04-28T03:47:47;101544.75;;;15.29;47.67
62126;BME280;69591;53.282;6.150;2023-04-28T03:48:48;101544.75;;;15.29;47.82
62126;BME280;69591;53.282;6.150;2023-04-28T03:49:52;101536.59;;;15.29;47.69
62126;BME280;69591;53.282;6.150;2023-04-28T03:50:54;101543.97;;;15.29;47.98
62126;BME280;69591;53.282;6.150;2023-04-28T03:51:56;101529.59;;;15.28;47.82
62126;BME280;69591;53.282;6.150;2023-04-28T03:52:58;101531.16;;;15.29;47.94
62126;BME280;69591;53.282;6.150;2023-04-28T03:54:00;101533.88;;;15.29;47.91
62126;BME280;69591;53.282;6.150;2023-04-28T03:55:02;101527.63;;;15.29;47.90
62126;BME280;69591;53.282;6.150;2023-04-28T03:56:03;101532.31;;;15.28;48.02
62126;BME280;69591;53.282;6.150;2023-04-28T03:57:06;101527.63;;;15.29;47.88
62126;BME280;69591;53.282;6.150;2023-04-28T03:58:07;101522.19;;;15.29;47.92
62126;BME280;69591;53.282;6.150;2023-04-28T03:59:10;101529.59;;;15.28;47.81
62126;BME280;69591;53.282;6.150;2023-04-28T04:00:12;101527.63;;;15.29;47.79
62126;BME280;69591;53.282;6.150;2023-04-28T04:01:19;101526.06;;;15.28;47.74
62126;BME280;69591;53.282;6.150;2023-04-28T04:02:22;101532.31;;;15.28;47.88
62126;BME280;69591;53.282;6.150;2023-04-28T04:03:23;101521.44;;;15.28;47.88
62126;BME280;69591;53.282;6.150;2023-04-28T04:04:25;101523.34;;;15.28;47.69
62126;BME280;69591;53.282;6.150;2023-04-28T04:05:27;101522.56;;;15.27;48.01
62126;BME280;69591;53.282;6.150;2023-04-28T04:06:29;101517.13;;;15.27;48.02
62126;BME280;69591;53.282;6.150;2023-04-28T04:07:31;101516.00;;;15.28;47.87
62126;BME280;69591;53.282;6.150;2023-04-28T04:08:32;101514.41;;;15.27;48.09
62126;BME280;69591;53.282;6.150;2023-04-28T04:09:34;101508.97;;;15.27;48.11
62126;BME280;69591;53.282;6.150;2023-04-28T04:10:35;101516.00;;;15.28;48.08
62126;BME280;69591;53.282;6.150;2023-04-28T04:11:37;101512.47;;;15.28;47.99
62126;BME280;69591;53.282;6.150;2023-04-28T04:12:38;101505.09;;;15.28;48.01
62126;BME280;69591;53.282;6.150;2023-04-28T04:13:40;101508.97;;;15.27;47.91
62126;BME280;69591;53.282;6.150;2023-04-28T04:14:46;101508.97;;;15.27;48.10
62126;BME280;69591;53.282;6.150;2023-04-28T04:15:48;101497.31;;;15.27;48.00
62126;BME280;69591;53.282;6.150;2023-04-28T04:16:50;101507.84;;;15.28;48.17
62126;BME280;69591;53.282;6.150;2023-04-28T04:17:51;101507.84;;;15.28;48.00
62126;BME280;69591;53.282;6.150;2023-04-28T04:18:55;101510.56;;;15.28;48.06
62126;BME280;69591;53.282;6.150;2023-04-28T04:20:03;101498.88;;;15.28;48.05
62126;BME280;69591;53.282;6.150;2023-04-28T04:21:04;101498.06;;;15.27;47.91
62126;BME280;69591;53.282;6.150;2023-04-28T04:22:06;101504.31;;;15.28;48.16
62126;BME280;69591;53.282;6.150;2023-04-28T04:23:08;101498.88;;;15.28;48.17
62126;BME280;69591;53.282;6.150;2023-04-28T04:24:09;101498.06;;;15.27;48.19
62126;BME280;69591;53.282;6.150;2023-04-28T04:25:11;101506.22;;;15.27;48.20
62126;BME280;69591;53.282;6.150;2023-04-28T04:26:13;101502.38;;;15.28;47.87
62126;BME280;69591;53.282;6.150;2023-04-28T04:27:15;101503.50;;;15.27;48.16
62126;BME280;69591;53.282;6.150;2023-04-28T04:28:16;101498.06;;;15.27;48.02
62126;BME280;69591;53.282;6.150;2023-04-28T04:29:18;101503.50;;;15.27;48.00
62126;BME280;69591;53.282;6.150;2023-04-28T04:30:21;101506.22;;;15.27;48.09
62126;BME280;69591;53.282;6.150;2023-04-28T04:31:22;101503.50;;;15.27;48.16
62126;BME280;69591;53.282;6.150;2023-04-28T04:32:24;101511.69;;;15.27;48.02
62126;BME280;69591;53.282;6.150;2023-04-28T04:33:27;101498.06;;;15.27;48.21
62126;BME280;69591;53.282;6.150;2023-04-28T04:34:29;101508.97;;;15.27;48.13
62126;BME280;69591;53.282;6.150;2023-04-28T04:35:31;101503.50;;;15.27;48.04
62126;BME280;69591;53.282;6.150;2023-04-28T04:36:32;101508.97;;;15.27;48.32
62126;BME280;69591;53.282;6.150;2023-04-28T04:37:34;101503.50;;;15.27;48.00
62126;BME280;69591;53.282;6.150;2023-04-28T04:38:36;101500.78;;;15.27;48.11
62126;BME280;69591;53.282;6.150;2023-04-28T04:39:50;101498.88;;;15.28;48.20
62126;BME280;69591;53.282;6.150;2023-04-28T04:40:51;101498.06;;;15.27;48.15
62126;BME280;69591;53.282;6.150;2023-04-28T04:41:53;101493.44;;;15.28;48.22
62126;BME280;69591;53.282;6.150;2023-04-28T04:43:17;101495.34;;;15.27;48.13
62126;BME280;69591;53.282;6.150;2023-04-28T04:44:22;101504.31;;;15.28;48.25
62126;BME280;69591;53.282;6.150;2023-04-28T04:45:27;101498.88;;;15.28;48.03
62126;BME280;69591;53.282;6.150;2023-04-28T04:46:29;101488.78;;;15.28;48.04
62126;BME280;69591;53.282;6.150;2023-04-28T04:47:31;101488.78;;;15.28;48.35
62126;BME280;69591;53.282;6.150;2023-04-28T04:48:32;101479.03;;;15.27;48.05
62126;BME280;69591;53.282;6.150;2023-04-28T04:49:34;101479.03;;;15.27;48.15
62126;BME280;69591;53.282;6.150;2023-04-28T04:50:36;101481.75;;;15.27;48.23
62126;BME280;69591;53.282;6.150;2023-04-28T04:51:38;101479.03;;;15.27;48.16
62126;BME280;69591;53.282;6.150;2023-04-28T04:52:40;101470.88;;;15.27;48.29
62126;BME280;69591;53.282;6.150;2023-04-28T04:53:42;101464.66;;;15.27;48.10
62126;BME280;69591;53.282;6.150;2023-04-28T04:54:43;101470.09;;;15.27;48.16
62126;BME280;69591;53.282;6.150;2023-04-28T04:55:47;101464.66;;;15.27;48.16
62126;BME280;69591;53.282;6.150;2023-04-28T04:56:49;101459.22;;;15.27;48.13
62126;BME280;69591;53.282;6.150;2023-04-28T04:57:59;101459.97;;;15.27;48.19
62126;BME280;69591;53.282;6.150;2023-04-28T04:59:19;101459.22;;;15.27;48.28
62126;BME280;69591;53.282;6.150;2023-04-28T05:00:41;101458.41;;;15.26;48.27
62126;BME280;69591;53.282;6.150;2023-04-28T05:01:44;101453.78;;;15.27;48.43
62126;BME280;69591;53.282;6.150;2023-04-28T05:02:46;101452.97;;;15.26;48.10
62126;BME280;69591;53.282;6.150;2023-04-28T05:03:50;101452.97;;;15.26;48.56
62126;BME280;69591;53.282;6.150;2023-04-28T05:04:53;101457.63;;;15.26;48.37
62126;BME280;69591;53.282;6.150;2023-04-28T05:06:02;101460.34;;;15.26;48.26
62126;BME280;69591;53.282;6.150;2023-04-28T05:07:12;101456.84;;;15.25;48.17
62126;BME280;69591;53.282;6.150;2023-04-28T05:08:14;101456.84;;;15.25;48.34
62126;BME280;69591;53.282;6.150;2023-04-28T05:09:16;101450.25;;;15.26;48.37
62126;BME280;69591;53.282;6.150;2023-04-28T05:10:18;101461.16;;;15.26;48.43
62126;BME280;69591;53.282;6.150;2023-04-28T05:11:20;101461.94;;;15.27;48.52
62126;BME280;69591;53.282;6.150;2023-04-28T05:12:21;101458.41;;;15.26;48.46
62126;BME280;69591;53.282;6.150;2023-04-28T05:13:23;101454.53;;;15.27;48.63
62126;BME280;69591;53.282;6.150;2023-04-28T05:14:30;101453.41;;;15.28;48.73
62126;BME280;69591;53.282;6.150;2023-04-28T05:15:32;101454.53;;;15.27;48.41
62126;BME280;69591;53.282;6.150;2023-04-28T05:16:55;101450.69;;;15.28;48.60
62126;BME280;69591;53.282;6.150;2023-04-28T05:17:59;101439.03;;;15.28;48.43
62126;BME280;69591;53.282;6.150;2023-04-28T05:19:01;101445.25;;;15.28;48.67
62126;BME280;69591;53.282;6.150;2023-04-28T05:20:03;101445.25;;;15.28;48.60
62126;BME280;69591;53.282;6.150;2023-04-28T05:21:04;101436.31;;;15.28;48.72
62126;BME280;69591;53.282;6.150;2023-04-28T05:22:07;101450.34;;;15.30;48.69
62126;BME280;69591;53.282;6.150;2023-04-28T05:23:10;101439.81;;;15.28;48.60
62126;BME280;69591;53.282;6.150;2023-04-28T05:24:12;101440.59;;;15.29;48.55
62126;BME280;69591;53.282;6.150;2023-04-28T05:25:14;101446.81;;;15.29;48.45
62126;BME280;69591;53.282;6.150;2023-04-28T05:26:16;101446.81;;;15.29;48.68
62126;BME280;69591;53.282;6.150;2023-04-28T05:27:18;101443.31;;;15.29;48.91
62126;BME280;69591;53.282;6.150;2023-04-28T05:28:19;101446.03;;;15.29;48.69